sensor_id;sensor_type;location;lat;lon;timestamp;pressure;altitude;pressure_sealevel;temperature;humidity
12987;BME280;58897;51.960;5.582;2023-04-30T00:01:55;102056.84;;;8.89;100.00
12987;BME280;58897;51.960;5.582;2023-04-30T00:04:21;102056.63;;;8.81;100.00
12987;BME280;58897;51.960;5.582;2023-04-30T00:06:48;102055.00;;;8.79;100.00
12987;BME280;58897;51.960;5.582;2023-04-30T00:09:15;102058.94;;;8.86;100.00
12987;BME280;58897;51.960;5.582;2023-04-30T00:11:41;102056.88;;;8.78;100.00
12987;BME280;58897;51.960;5.582;2023-04-30T00:14:08;102062.75;;;8.72;100.00
12987;BME280;58897;51.960;5.582;2023-04-30T00:16:35;102064.69;;;8.70;100.00
12987;BME280;58897;51.960;5.582;2023-04-30T00:19:01;102069.22;;;8.69;100.00
12987;BME280;58897;51.960;5.582;2023-04-30T00:21:28;102054.78;;;8.82;100.00
12987;BME280;58897;51.960;5.582;2023-04-30T00:23:54;102058.31;;;8.82;100.00
12987;BME280;58897;51.960;5.582;2023-04-30T00:26:21;102071.06;;;8.69;100.00
12987;BME280;58897;51.960;5.582;2023-04-30T00:28:47;102072.28;;;8.76;100.00
12987;BME280;58897;51.960;5.582;2023-04-30T00:31:14;102070.06;;;8.59;100.00
12987;BME280;58897;51.960;5.582;2023-04-30T00:33:40;102063.97;;;8.57;100.00
12987;BME280;58897;51.960;5.582;2023-04-30T00:36:07;102076.09;;;8.62;100.00
12987;BME280;58897;51.960;5.582;2023-04-30T00:38:33;102078.28;;;8.57;100.00
12987;BME280;58897;51.960;5.582;2023-04-30T00:41:00;102072.91;;;8.57;100.00
12987;BME280;58897;51.960;5.582;2023-04-30T00:43:26;102074.47;;;8.49;100.00
12987;BME280;58897;51.960;5.582;2023-04-30T00:45:53;102074.72;;;8.46;100.00
12987;BME280;58897;51.960;5.582;2023-04-30T00:48:19;102079.97;;;8.47;100.00
12987;BME280;58897;51.960;5.582;2023-04-30T00:50:46;102084.00;;;8.42;100.00
12987;BME280;58897;51.960;5.582;2023-04-30T00:53:13;102082.41;;;8.39;100.00
12987;BME280;58897;51.960;5.582;2023-04-30T00:55:40;102085.47;;;8.46;100.00
12987;BME280;58897;51.960;5.582;2023-04-30T00:58:07;102088.63;;;8.40;100.00
12987;BME280;58897;51.960;5.582;2023-04-30T01:00:33;102084.97;;;8.41;100.00
12987;BME280;58897;51.960;5.582;2023-04-30T01:03:00;102081.88;;;8.34;100.00
12987;BME280;58897;51.960;5.582;2023-04-30T01:05:27;102074.69;;;8.35;100.00
12987;BME280;58897;51.960;5.582;2023-04-30T01:07:54;102077.97;;;8.27;100.00
12987;BME280;58897;51.960;5.582;2023-04-30T01:10:28;102068.69;;;8.31;100.00
12987;BME280;58897;51.960;5.582;2023-04-30T01:13:02;102077.97;;;8.27;100.00
12987;BME280;58897;51.960;5.582;2023-04-30T01:15:40;102077.72;;;8.30;100.00
12987;BME280;58897;51.960;5.582;2023-04-30T01:21:07;102086.72;;;8.18;100.00
12987;BME280;58897;51.960;5.582;2023-04-30T01:23:42;102082.94;;;8.21;100.00
12987;BME280;58897;51.960;5.582;2023-04-30T01:28:53;102082.44;;;8.16;100.00
12987;BME280;58897;51.960;5.582;2023-04-30T01:31:22;102078.53;;;8.20;100.00
12987;BME280;58897;51.960;5.582;2023-04-30T01:33:49;102068.72;;;8.07;100.00
12987;BME280;58897;51.960;5.582;2023-04-30T01:39:08;102076.81;;;8.19;100.00
12987;BME280;58897;51.960;5.582;2023-04-30T01:55:08;102090.88;;;7.87;100.00
12987;BME280;58897;51.960;5.582;2023-04-30T01:57:41;102095.38;;;7.76;100.00
12987;BME280;58897;51.960;5.582;2023-04-30T02:00:09;102097.69;;;7.80;100.00
12987;BME280;58897;51.960;5.582;2023-04-30T02:02:37;102093.69;;;7.86;100.00
12987;BME280;58897;51.960;5.582;2023-04-30T02:05:04;102096.53;;;7.84;100.00
12987;BME280;58897;51.960;5.582;2023-04-30T02:10:04;102099.53;;;7.80;100.00
12987;BME280;58897;51.960;5.582;2023-04-30T02:12:31;102099.31;;;7.83;100.00
12987;BME280;58897;51.960;5.582;2023-04-30T02:14:58;102101.38;;;7.79;100.00
12987;BME280;58897;51.960;5.582;2023-04-30T02:17:24;102099.31;;;7.83;100.00
12987;BME280;58897;51.960;5.582;2023-04-30T02:19:51;102094.41;;;7.77;100.00
12987;BME280;58897;51.960;5.582;2023-04-30T02:22:17;102103.22;;;7.79;100.00
12987;BME280;58897;51.960;5.582;2023-04-30T02:24:44;102101.72;;;7.75;100.00
12987;BME280;58897;51.960;5.582;2023-04-30T02:27:10;102097.78;;;7.68;100.00
12987;BME280;58897;51.960;5.582;2023-04-30T02:29:37;102091.53;;;7.67;100.00
12987;BME280;58897;51.960;5.582;2023-04-30T02:32:04;102097.78;;;7.68;100.00
12987;BME280;58897;51.960;5.582;2023-04-30T02:34:31;102098.69;;;7.79;100.00
12987;BME280;58897;51.960;5.582;2023-04-30T02:36:57;102098.97;;;7.64;100.00
12987;BME280;58897;51.960;5.582;2023-04-30T02:39:24;102093.81;;;7.61;100.00
12987;BME280;58897;51.960;5.582;2023-04-30T02:41:50;102100.09;;;7.72;100.00
12987;BME280;58897;51.960;5.582;2023-04-30T02:44:16;102098.97;;;7.64;100.00
12987;BME280;58897;51.960;5.582;2023-04-30T02:46:43;102098.84;;;7.65;100.00
12987;BME280;58897;51.960;5.582;2023-04-30T02:49:09;102100.81;;;7.63;100.00
12987;BME280;58897;51.960;5.582;2023-04-30T02:51:36;102092.44;;;7.55;100.00
12987;BME280;58897;51.960;5.582;2023-04-30T02:54:02;102090.09;;;7.51;100.00
12987;BME280;58897;51.960;5.582;2023-04-30T02:56:29;102092.66;;;7.52;100.00
12987;BME280;58897;51.960;5.582;2023-04-30T02:58:56;102088.81;;;7.43;100.00
12987;BME280;58897;51.960;5.582;2023-04-30T03:01:22;102084.94;;;7.47;100.00
12987;BME280;58897;51.960;5.582;2023-04-30T03:03:49;102086.16;;;7.67;100.00
12987;BME280;58897;51.960;5.582;2023-04-30T03:06:15;102082.66;;;7.54;100.00
12987;BME280;58897;51.960;5.582;2023-04-30T03:08:41;102084.16;;;7.58;100.00
12987;BME280;58897;51.960;5.582;2023-04-30T03:11:08;102077.50;;;7.51;100.00
12987;BME280;58897;51.960;5.582;2023-04-30T03:13:34;102081.88;;;7.28;100.00
12987;BME280;58897;51.960;5.582;2023-04-30T03:16:02;102091.00;;;7.38;100.00
12987;BME280;58897;51.960;5.582;2023-04-30T03:18:32;102091.41;;;7.45;100.00
12987;BME280;58897;51.960;5.582;2023-04-30T03:20:58;102089.81;;;7.42;100.00
12987;BME280;58897;51.960;5.582;2023-04-30T03:23:26;102094.53;;;7.39;100.00
12987;BME280;58897;51.960;5.582;2023-04-30T03:25:53;102086.81;;;7.34;100.00
12987;BME280;58897;51.960;5.582;2023-04-30T03:28:20;102086.88;;;7.22;100.00
12987;BME280;58897;51.960;5.582;2023-04-30T03:30:46;102089.22;;;7.26;100.00
12987;BME280;58897;51.960;5.582;2023-04-30T03:33:13;102080.72;;;7.20;100.00
12987;BME280;58897;51.960;5.582;2023-04-30T03:35:39;102087.69;;;7.35;100.00
12987;BME280;58897;51.960;5.582;2023-04-30T03:38:06;102082.53;;;7.32;100.00
12987;BME280;58897;51.960;5.582;2023-04-30T03:40:33;102083.41;;;7.32;100.00
12987;BME280;58897;51.960;5.582;2023-04-30T03:42:59;102071.06;;;7.17;100.00
12987;BME280;58897;51.960;5.582;2023-04-30T03:45:26;102066.44;;;7.19;100.00
12987;BME280;58897;51.960;5.582;2023-04-30T03:47:52;102074.25;;;7.22;100.00
12987;BME280;58897;51.960;5.582;2023-04-30T03:50:19;102073.38;;;7.34;100.00
12987;BME280;58897;51.960;5.582;2023-04-30T03:52:45;102076.34;;;7.19;100.00
12987;BME280;58897;51.960;5.582;2023-04-30T03:55:12;102072.91;;;7.17;100.00
12987;BME280;58897;51.960;5.582;2023-04-30T03:57:39;102079.13;;;7.17;100.00
12987;BME280;58897;51.960;5.582;2023-04-30T04:00:09;102078.34;;;7.28;100.00
12987;BME280;58897;51.960;5.582;2023-04-30T04:02:36;102074.22;;;7.11;100.00
12987;BME280;58897;51.960;5.582;2023-04-30T04:05:03;102070.97;;;7.19;100.00
12987;BME280;58897;51.960;5.582;2023-04-30T04:07:30;102070.88;;;7.08;100.00
12987;BME280;58897;51.960;5.582;2023-04-30T04:09:56;102070.09;;;7.18;100.00
12987;BME280;58897;51.960;5.582;2023-04-30T04:12:23;102067.81;;;7.25;100.00
12987;BME280;58897;51.960;5.582;2023-04-30T04:14:49;102076.22;;;7.20;100.00
12987;BME280;58897;51.960;5.582;2023-04-30T04:17:16;102072.56;;;7.21;100.00
12987;BME280;58897;51.960;5.582;2023-04-30T04:19:42;102086.22;;;7.18;100.00
12987;BME280;58897;51.960;5.582;2023-04-30T04:22:08;102086.34;;;7.17;100.00
12987;BME280;58897;51.960;5.582;2023-04-30T04:24:35;102088.25;;;7.15;100.00
12987;BME280;58897;51.960;5.582;2023-04-30T04:27:03;102083.66;;;7.04;100.00
12987;BME280;58897;51.960;5.582;2023-04-30T04:29:30;102088.28;;;7.02;100.00
12987;BME280;58897;51.960;5.582;2023-04-30T04:31:57;102086.56;;;7.14;100.00
12987;BME280;58897;51.960;5.582;2023-04-30T04:34:26;102091.59;;;7.18;100.00
12987;BME280;58897;51.960;5.582;2023-04-30T04:36:53;102095.06;;;7.08;100.00
12987;BME280;58897;51.960;5.582;2023-04-30T04:39:19;102086.47;;;7.03;100.00
12987;BME280;58897;51.960;5.582;2023-04-30T04:41:46;102094.19;;;7.07;100.00
12987;BME280;58897;51.960;5.582;2023-04-30T04:44:12;102093.31;;;7.07;100.00
12987;BME280;58897;51.960;5.582;2023-04-30T04:46:39;102096.22;;;7.16;100.00
12987;BME280;58897;51.960;5.582;2023-04-30T04:49:07;102098.19;;;7.02;100.00
12987;BME280;58897;51.960;5.582;2023-04-30T04:51:34;102091.84;;;7.03;100.00
12987;BME280;58897;51.960;5.582;2023-04-30T04:54:01;102090.97;;;7.02;100.00
12987;BME280;58897;51.960;5.582;2023-04-30T04:56:27;102094.41;;;7.04;100.00
12987;BME280;58897;51.960;5.582;2023-04-30T04:58:54;102093.84;;;7.24;100.00
12987;BME280;58897;51.960;5.582;2023-04-30T05:01:20;102088.34;;;7.26;100.00
12987;BME280;58897;51.960;5.582;2023-04-30T05:03:47;102084.63;;;7.16;100.00
12987;BME280;58897;51.960;5.582;2023-04-30T05:06:14;102087.38;;;7.27;100.00
12987;BME280;58897;51.960;5.582;2023-04-30T05:08:41;102086.97;;;7.20;100.00
12987;BME280;58897;51.960;5.582;2023-04-30T05:11:07;102085.53;;;7.27;100.00
12987;BME280;58897;51.960;5.582;2023-04-30T05:13:34;102086.19;;;7.31;100.00
12987;BME280;58897;51.960;5.582;2023-04-30T05:16:00;102096.78;;;7.45;100.00
12987;BME280;58897;51.960;5.582;2023-04-30T05:18:27;102099.25;;;7.48;100.00
12987;BME280;58897;51.960;5.582;2023-04-30T05:20:53;102088.91;;;7.55;100.00
12987;BME280;58897;51.960;5.582;2023-04-30T05:23:20;102096.75;;;7.58;100.00
12987;BME280;58897;51.960;5.582;2023-04-30T05:25:50;102092.03;;;7.72;100.00
12987;BME280;58897;51.960;5.582;2023-04-30T05:28:17;102095.31;;;7.65;100.00
12987;BME280;58897;51.960;5.582;2023-04-30T05:30:44;102102.22;;;7.80;100.00
12987;BME280;58897;51.960;5.582;2023-04-30T05:33:10;102098.56;;;7.81;100.00
12987;BME280;58897;51.960;5.582;2023-04-30T05:35:37;102093.47;;;7.89;100.00
12987;BME280;58897;51.960;5.582;2023-04-30T05:38:03;102095.53;;;7.85;100.00
12987;BME280;58897;51.960;5.582;2023-04-30T05:40:30;102099.13;;;7.97;100.00
12987;BME280;58897;51.960;5.582;2023-04-30T05:42:57;102094.06;;;7.81;100.00
12987;BME280;58897;51.960;5.582;2023-04-30T05:45:23;102097.00;;;8.13;100.00
12987;BME280;58897;51.960;5.582;2023-04-30T05:47:50;102095.09;;;8.26;100.00
12987;BME280;58897;51.960;5.582;2023-04-30T05:50:16;102088.84;;;8.26;100.00
12987;BME280;58897;51.960;5.582;2023-04-30T05:52:43;102092.06;;;8.31;100.00
12987;BME280;58897;51.960;5.582;2023-04-30T05:55:09;102093.25;;;8.27;100.00
12987;BME280;58897;51.960;5.582;2023-04-30T05:57:36;102089.63;;;8.39;100.00
12987;BME280;58897;51.960;5.582;2023-04-30T06:00:03;102089.72;;;8.37;100.00
12987;BME280;58897;51.960;5.582;2023-04-30T06:02:33;102090.56;;;8.27;100.00
12987;BME280;58897;51.960;5.582;2023-04-30T06:04:59;102084.47;;;8.36;100.00
12987;BME280;58897;51.960;5.582;2023-04-30T06:07:28;102088.13;;;8.35;100.00
12987;BME280;58897;51.960;5.582;2023-04-30T06:09:55;102091.34;;;8.40;100.00
12987;BME280;58897;51.960;5.582;2023-04-30T06:12:22;102098.56;;;8.50;100.00
12987;BME280;58897;51.960;5.582;2023-04-30T06:14:48;102101.66;;;8.57;100.00
12987;BME280;58897;51.960;5.582;2023-04-30T06:17:15;102100.69;;;8.69;100.00
12987;BME280;58897;51.960;5.582;2023-04-30T06:19:42;102094.84;;;8.86;100.00
12987;BME280;58897;51.960;5.582;2023-04-30T06:22:08;102102.69;;;8.78;100.00
12987;BME280;58897;51.960;5.582;2023-04-30T06:24:35;102097.41;;;8.88;100.00
12987;BME280;58897;51.960;5.582;2023-04-30T06:27:02;102091.78;;;9.02;100.00
12987;BME280;58897;51.960;5.582;2023-04-30T06:29:28;102093.84;;;9.09;100.00
12987;BME280;58897;51.960;5.582;2023-04-30T06:31:55;102092.84;;;9.10;100.00
12987;BME280;58897;51.960;5.582;2023-04-30T06:34:22;102095.78;;;9.29;100.00
12987;BME280;58897;51.960;5.582;2023-04-30T06:36:48;102097.84;;;9.48;100.00
12987;BME280;58897;51.960;5.582;2023-04-30T06:39:15;102094.72;;;9.75;100.00
12987;BME280;58897;51.960;5.582;2023-04-30T06:41:42;102081.47;;;10.04;100.00
12987;BME280;58897;51.960;5.582;2023-04-30T06:44:08;102081.09;;;10.49;100.00
12987;BME280;58897;51.960;5.582;2023-04-30T06:46:35;102077.38;;;11.01;100.00
12987;BME280;58897;51.960;5.582;2023-04-30T06:49:02;102082.38;;;11.06;100.00
12987;BME280;58897;51.960;5.582;2023-04-30T06:51:29;102081.84;;;11.71;100.00
12987;BME280;58897;51.960;5.582;2023-04-30T06:53:56;102087.72;;;12.05;100.00
12987;BME280;58897;51.960;5.582;2023-04-30T06:56:22;102086.00;;;11.85;100.00
12987;BME280;58897;51.960;5.582;2023-04-30T06:58:50;102089.72;;;12.22;100.00
12987;BME280;58897;51.960;5.582;2023-04-30T07:01:16;102086.16;;;12.41;100.00
12987;BME280;58897;51.960;5.582;2023-04-30T07:03:44;102087.44;;;12.83;100.00
12987;BME280;58897;51.960;5.582;2023-04-30T07:06:10;102086.00;;;13.25;100.00
12987;BME280;58897;51.960;5.582;2023-04-30T07:08:37;102096.22;;;12.58;100.00
12987;BME280;58897;51.960;5.582;2023-04-30T07:11:06;102083.91;;;13.19;100.00
12987;BME280;58897;51.960;5.582;2023-04-30T07:13:33;102087.78;;;13.44;100.00
12987;BME280;58897;51.960;5.582;2023-04-30T07:15:59;102087.97;;;13.60;100.00
12987;BME280;58897;51.960;5.582;2023-04-30T07:18:26;102087.66;;;13.63;100.00
12987;BME280;58897;51.960;5.582;2023-04-30T07:20:52;102087.09;;;13.42;100.00
12987;BME280;58897;51.960;5.582;2023-04-30T07:23:19;102092.56;;;13.77;100.00
12987;BME280;58897;51.960;5.582;2023-04-30T07:25:46;102093.72;;;13.75;100.00
12987;BME280;58897;51.960;5.582;2023-04-30T07:28:12;102088.50;;;14.52;100.00
12987;BME280;58897;51.960;5.582;2023-04-30T07:30:39;102099.31;;;14.44;100.00
12987;BME280;58897;51.960;5.582;2023-04-30T07:33:06;102094.78;;;14.52;100.00
12987;BME280;58897;51.960;5.582;2023-04-30T07:35:33;102087.31;;;15.06;100.00
12987;BME280;58897;51.960;5.582;2023-04-30T07:38:00;102076.69;;;15.28;100.00
12987;BME280;58897;51.960;5.582;2023-04-30T07:40:27;102081.78;;;15.23;100.00
12987;BME280;58897;51.960;5.582;2023-04-30T07:43:02;102081.28;;;14.94;100.00
12987;BME280;58897;51.960;5.582;2023-04-30T07:45:29;102085.00;;;15.19;100.00
12987;BME280;58897;51.960;5.582;2023-04-30T07:47:56;102080.22;;;15.21;100.00
12987;BME280;58897;51.960;5.582;2023-04-30T07:50:23;102087.59;;;15.28;100.00
12987;BME280;58897;51.960;5.582;2023-04-30T07:52:49;102079.94;;;15.74;100.00
12987;BME280;58897;51.960;5.582;2023-04-30T07:55:16;102088.59;;;15.77;100.00
12987;BME280;58897;51.960;5.582;2023-04-30T07:57:42;102084.25;;;16.00;100.00
12987;BME280;58897;51.960;5.582;2023-04-30T08:00:09;102077.91;;;15.84;100.00
12987;BME280;58897;51.960;5.582;2023-04-30T08:02:35;102089.22;;;16.53;100.00
12987;BME280;58897;51.960;5.582;2023-04-30T08:05:02;102087.66;;;16.35;100.00
12987;BME280;58897;51.960;5.582;2023-04-30T08:07:29;102083.72;;;16.78;100.00
12987;BME280;58897;51.960;5.582;2023-04-30T08:09:55;102088.34;;;16.69;100.00
12987;BME280;58897;51.960;5.582;2023-04-30T08:12:22;102093.34;;;17.12;100.00
12987;BME280;58897;51.960;5.582;2023-04-30T08:14:49;102097.34;;;15.89;100.00
12987;BME280;58897;51.960;5.582;2023-04-30T08:17:15;102091.50;;;17.05;100.00
12987;BME280;58897;51.960;5.582;2023-04-30T08:19:42;102086.81;;;17.21;100.00
12987;BME280;58897;51.960;5.582;2023-04-30T08:22:08;102087.75;;;17.53;100.00
12987;BME280;58897;51.960;5.582;2023-04-30T08:24:35;102089.84;;;17.73;100.00
12987;BME280;58897;51.960;5.582;2023-04-30T08:27:01;102078.81;;;18.35;100.00
12987;BME280;58897;51.960;5.582;2023-04-30T08:29:29;102084.47;;;17.88;100.00
12987;BME280;58897;51.960;5.582;2023-04-30T08:31:57;102090.41;;;17.22;100.00
12987;BME280;58897;51.960;5.582;2023-04-30T08:34:26;102085.13;;;17.20;100.00
12987;BME280;58897;51.960;5.582;2023-04-30T08:36:52;102085.63;;;17.63;100.00
12987;BME280;58897;51.960;5.582;2023-04-30T08:39:19;102076.78;;;17.83;100.00
12987;BME280;58897;51.960;5.582;2023-04-30T08:41:51;102076.53;;;18.01;100.00
12987;BME280;58897;51.960;5.582;2023-04-30T08:44:25;102080.25;;;18.45;100.00
12987;BME280;58897;51.960;5.582;2023-04-30T08:46:54;102078.06;;;18.78;100.00
12987;BME280;58897;51.960;5.582;2023-04-30T08:49:21;102072.97;;;18.75;100.00
12987;BME280;58897;51.960;5.582;2023-04-30T08:51:50;102078.47;;;19.04;96.98
12987;BME280;58897;51.960;5.582;2023-04-30T08:54:18;102084.09;;;18.36;96.74
12987;BME280;58897;51.960;5.582;2023-04-30T08:56:45;102075.16;;;19.24;97.62
12987;BME280;58897;51.960;5.582;2023-04-30T08:59:12;102078.00;;;18.49;92.20
12987;BME280;58897;51.960;5.582;2023-04-30T09:01:40;102080.03;;;18.70;92.05
12987;BME280;58897;51.960;5.582;2023-04-30T09:04:06;102082.00;;;19.63;87.12
12987;BME280;58897;51.960;5.582;2023-04-30T09:06:33;102084.34;;;18.04;97.91
12987;BME280;58897;51.960;5.582;2023-04-30T09:09:14;102080.44;;;18.81;99.32
12987;BME280;58897;51.960;5.582;2023-04-30T09:11:41;102081.13;;;18.98;94.12
12987;BME280;58897;51.960;5.582;2023-04-30T09:14:08;102077.78;;;18.59;90.08
12987;BME280;58897;51.960;5.582;2023-04-30T09:16:48;102074.06;;;17.83;97.18
12987;BME280;58897;51.960;5.582;2023-04-30T09:19:26;102075.44;;;19.43;90.65
12987;BME280;58897;51.960;5.582;2023-04-30T09:21:53;102076.94;;;19.31;83.26
12987;BME280;58897;51.960;5.582;2023-04-30T09:24:20;102072.53;;;19.81;85.03
12987;BME280;58897;51.960;5.582;2023-04-30T09:26:47;102071.72;;;19.87;77.47
12987;BME280;58897;51.960;5.582;2023-04-30T09:29:14;102071.00;;;20.63;84.96
12987;BME280;58897;51.960;5.582;2023-04-30T09:31:45;102066.00;;;20.45;73.38
12987;BME280;58897;51.960;5.582;2023-04-30T09:34:13;102069.25;;;20.55;74.26
12987;BME280;58897;51.960;5.582;2023-04-30T09:36:53;102069.38;;;19.33;78.16
12987;BME280;58897;51.960;5.582;2023-04-30T09:39:22;102061.50;;;20.38;76.93
12987;BME280;58897;51.960;5.582;2023-04-30T09:41:49;102062.00;;;21.03;69.32
12987;BME280;58897;51.960;5.582;2023-04-30T09:44:31;102071.69;;;20.71;68.44
12987;BME280;58897;51.960;5.582;2023-04-30T09:46:57;102064.44;;;20.91;74.62
12987;BME280;58897;51.960;5.582;2023-04-30T09:49:25;102056.03;;;21.27;63.88
12987;BME280;58897;51.960;5.582;2023-04-30T09:51:54;102058.25;;;21.11;66.20
12987;BME280;58897;51.960;5.582;2023-04-30T09:54:26;102040.75;;;21.79;60.86
12987;BME280;58897;51.960;5.582;2023-04-30T09:56:54;102041.59;;;21.73;62.98
12987;BME280;58897;51.960;5.582;2023-04-30T09:59:28;102039.78;;;21.39;63.49
12987;BME280;58897;51.960;5.582;2023-04-30T10:02:02;102033.44;;;21.92;65.04
12987;BME280;58897;51.960;5.582;2023-04-30T10:04:36;102028.38;;;22.16;60.37
12987;BME280;58897;51.960;5.582;2023-04-30T10:07:09;102026.75;;;21.61;57.06
12987;BME280;58897;51.960;5.582;2023-04-30T10:09:49;102024.66;;;21.82;60.48
12987;BME280;58897;51.960;5.582;2023-04-30T10:12:21;102025.47;;;21.09;65.58
12987;BME280;58897;51.960;5.582;2023-04-30T10:15:05;102027.22;;;21.84;66.18
12987;BME280;58897;51.960;5.582;2023-04-30T10:17:35;102020.44;;;22.98;54.46
12987;BME280;58897;51.960;5.582;2023-04-30T10:20:08;102022.63;;;22.04;56.14
12987;BME280;58897;51.960;5.582;2023-04-30T10:22:35;102024.25;;;21.79;66.23
12987;BME280;58897;51.960;5.582;2023-04-30T10:25:02;102013.31;;;22.25;56.17
12987;BME280;58897;51.960;5.582;2023-04-30T10:27:29;102015.66;;;22.67;55.70
12987;BME280;58897;51.960;5.582;2023-04-30T10:29:56;102015.22;;;22.57;63.87
12987;BME280;58897;51.960;5.582;2023-04-30T10:32:29;102018.00;;;22.44;60.29
12987;BME280;58897;51.960;5.582;2023-04-30T10:35:18;102008.66;;;22.38;56.39
12987;BME280;58897;51.960;5.582;2023-04-30T10:40:17;102007.13;;;22.82;58.42
12987;BME280;58897;51.960;5.582;2023-04-30T10:42:48;102002.47;;;23.84;53.29
12987;BME280;58897;51.960;5.582;2023-04-30T10:45:15;101999.41;;;23.16;50.44
12987;BME280;58897;51.960;5.582;2023-04-30T10:47:43;101999.47;;;23.54;53.04
12987;BME280;58897;51.960;5.582;2023-04-30T10:50:13;102000.41;;;22.38;55.08
12987;BME280;58897;51.960;5.582;2023-04-30T10:52:39;101996.34;;;23.31;55.76
12987;BME280;58897;51.960;5.582;2023-04-30T10:55:07;101986.41;;;22.40;57.83
12987;BME280;58897;51.960;5.582;2023-04-30T10:57:41;101986.28;;;23.12;58.67
12987;BME280;58897;51.960;5.582;2023-04-30T11:02:45;101981.53;;;22.61;55.74
12987;BME280;58897;51.960;5.582;2023-04-30T11:05:17;101978.66;;;23.07;57.52
12987;BME280;58897;51.960;5.582;2023-04-30T11:07:49;101974.84;;;23.59;53.00
12987;BME280;58897;51.960;5.582;2023-04-30T11:10:20;101971.13;;;23.34;52.76
12987;BME280;58897;51.960;5.582;2023-04-30T11:12:49;101970.13;;;23.91;53.80
12987;BME280;58897;51.960;5.582;2023-04-30T11:15:19;101963.28;;;22.73;55.71
12987;BME280;58897;51.960;5.582;2023-04-30T11:17:49;101964.81;;;23.65;59.10
12987;BME280;58897;51.960;5.582;2023-04-30T11:20:22;101959.84;;;24.05;51.75
12987;BME280;58897;51.960;5.582;2023-04-30T11:23:27;101962.28;;;23.25;54.27
12987;BME280;58897;51.960;5.582;2023-04-30T11:26:07;101948.94;;;23.60;55.43
12987;BME280;58897;51.960;5.582;2023-04-30T11:28:35;101953.69;;;23.47;57.50
12987;BME280;58897;51.960;5.582;2023-04-30T11:31:03;101950.34;;;22.87;57.98
12987;BME280;58897;51.960;5.582;2023-04-30T11:33:31;101949.00;;;23.09;56.63
12987;BME280;58897;51.960;5.582;2023-04-30T11:35:59;101941.19;;;23.75;54.14
12987;BME280;58897;51.960;5.582;2023-04-30T11:38:33;101945.56;;;23.07;55.16
12987;BME280;58897;51.960;5.582;2023-04-30T11:41:00;101937.97;;;22.06;60.83
12987;BME280;58897;51.960;5.582;2023-04-30T11:43:28;101938.06;;;22.83;58.45
12987;BME280;58897;51.960;5.582;2023-04-30T11:46:08;101937.13;;;23.47;60.72
12987;BME280;58897;51.960;5.582;2023-04-30T11:48:37;101926.34;;;23.45;60.12
12987;BME280;58897;51.960;5.582;2023-04-30T11:51:24;101928.22;;;23.51;57.91
12987;BME280;58897;51.960;5.582;2023-04-30T11:53:52;101923.66;;;23.63;56.77
12987;BME280;58897;51.960;5.582;2023-04-30T11:56:19;101922.63;;;23.58;51.47
12987;BME280;58897;51.960;5.582;2023-04-30T11:58:48;101924.88;;;23.36;54.90
12987;BME280;58897;51.960;5.582;2023-04-30T12:01:15;101916.25;;;23.64;51.17
12987;BME280;58897;51.960;5.582;2023-04-30T12:03:47;101919.16;;;21.96;55.95
12987;BME280;58897;51.960;5.582;2023-04-30T12:06:27;101916.19;;;22.95;52.44
12987;BME280;58897;51.960;5.582;2023-04-30T12:08:55;101912.28;;;22.64;58.08
12987;BME280;58897;51.960;5.582;2023-04-30T12:11:27;101920.81;;;22.24;57.27
12987;BME280;58897;51.960;5.582;2023-04-30T12:13:55;101910.16;;;22.66;58.86
12987;BME280;58897;51.960;5.582;2023-04-30T12:16:27;101911.69;;;22.30;61.93
12987;BME280;58897;51.960;5.582;2023-04-30T12:18:54;101902.81;;;22.14;57.79
12987;BME280;58897;51.960;5.582;2023-04-30T12:21:21;101900.16;;;22.79;56.29
12987;BME280;58897;51.960;5.582;2023-04-30T12:23:48;101898.91;;;22.74;62.09
12987;BME280;58897;51.960;5.582;2023-04-30T12:26:14;101897.22;;;22.60;62.50
12987;BME280;58897;51.960;5.582;2023-04-30T12:28:41;101903.38;;;22.69;58.34
12987;BME280;58897;51.960;5.582;2023-04-30T12:31:08;101904.25;;;22.50;58.06
12987;BME280;58897;51.960;5.582;2023-04-30T12:33:34;101900.09;;;22.14;64.42
12987;BME280;58897;51.960;5.582;2023-04-30T12:36:02;101895.78;;;21.27;68.77
12987;BME280;58897;51.960;5.582;2023-04-30T12:38:29;101890.56;;;22.17;60.72
12987;BME280;58897;51.960;5.582;2023-04-30T12:40:55;101885.13;;;22.61;59.08
12987;BME280;58897;51.960;5.582;2023-04-30T12:43:22;101896.06;;;21.91;55.99
12987;BME280;58897;51.960;5.582;2023-04-30T12:45:50;101888.22;;;21.55;58.81
12987;BME280;58897;51.960;5.582;2023-04-30T12:48:24;101884.41;;;21.43;61.06
12987;BME280;58897;51.960;5.582;2023-04-30T12:50:59;101878.50;;;21.66;55.72
12987;BME280;58897;51.960;5.582;2023-04-30T12:53:27;101876.78;;;21.45;61.37
12987;BME280;58897;51.960;5.582;2023-04-30T12:56:15;101874.88;;;22.11;55.10
12987;BME280;58897;51.960;5.582;2023-04-30T12:58:43;101880.22;;;20.93;57.78
12987;BME280;58897;51.960;5.582;2023-04-30T13:01:19;101883.69;;;21.15;61.65
12987;BME280;58897;51.960;5.582;2023-04-30T13:03:47;101877.56;;;21.06;59.66
12987;BME280;58897;51.960;5.582;2023-04-30T13:06:14;101867.94;;;20.82;64.29
12987;BME280;58897;51.960;5.582;2023-04-30T13:08:40;101868.69;;;21.11;56.51
12987;BME280;58897;51.960;5.582;2023-04-30T13:11:23;101872.69;;;20.54;66.55
12987;BME280;58897;51.960;5.582;2023-04-30T13:13:52;101861.81;;;20.87;62.49
12987;BME280;58897;51.960;5.582;2023-04-30T13:16:20;101860.09;;;21.60;62.58
12987;BME280;58897;51.960;5.582;2023-04-30T13:18:47;101855.88;;;21.77;67.65
12987;BME280;58897;51.960;5.582;2023-04-30T13:21:13;101849.06;;;21.33;62.35
12987;BME280;58897;51.960;5.582;2023-04-30T13:23:39;101853.31;;;21.75;59.25